Observations de surface / UK / EGWC

Québec | Canada | États-Unis | France | UK | Europe | Ailleurs

Affichage: Infos & localisation pour EGWC | Aide pour décoder les METARs


Raw surface observations for station EGWC
EGWC 211150Z 11009KT 4000 BR FEW003 BKN005 02/02 Q1029 YLO1=
EGWC 211050Z 10005KT 1500 BR BKN004 01/01 Q1029 AMB=
EGWC 210950Z 10009KT 0800 FG OVC004 01/M01 Q1030 AMB=
EGWC 210850Z 09009KT 1000 BR BKN004 M02/M02 Q1030 AMB=